createdAt,value
2017-12-31T00:03:09.380Z,996.2
2017-12-31T00:03:58.047Z,996.21
2017-12-31T00:04:48.935Z,996.24
2017-12-31T00:05:38.741Z,996.25
2017-12-31T00:06:27.340Z,996.13
2017-12-31T00:07:16.620Z,996.16
2017-12-31T00:12:13.434Z,996.22
2017-12-31T00:13:55.506Z,996.26
2017-12-31T00:14:36.328Z,996.23
2017-12-31T00:15:16.259Z,996.24
2017-12-31T00:15:56.678Z,996.27
2017-12-31T00:16:37.106Z,996.31
2017-12-31T00:17:17.490Z,996.27
2017-12-31T00:17:57.952Z,996.32
2017-12-31T00:18:38.517Z,996.3
2017-12-31T00:19:18.794Z,996.26
2017-12-31T00:19:59.223Z,996.3
2017-12-31T00:20:39.615Z,996.26
2017-12-31T00:21:20.087Z,996.26
2017-12-31T00:22:01.096Z,996.23
2017-12-31T00:22:41.555Z,996.26
2017-12-31T00:23:22.109Z,996.16
2017-12-31T00:24:02.546Z,996.19
2017-12-31T00:24:43.413Z,996.15
2017-12-31T00:30:53.808Z,996.16
2017-12-31T00:31:36.333Z,996.08
2017-12-31T00:32:17.531Z,996.13
2017-12-31T00:32:57.660Z,996.16
2017-12-31T00:33:40.249Z,996.18
2017-12-31T00:34:20.556Z,996.13
2017-12-31T00:35:01.031Z,996.06
2017-12-31T00:35:41.799Z,996.15
2017-12-31T00:36:22.446Z,996.18
2017-12-31T00:37:03.006Z,996.18
2017-12-31T00:37:43.748Z,996.09
2017-12-31T00:38:27.236Z,996.15
2017-12-31T00:39:08.489Z,996.17
2017-12-31T00:39:49.642Z,996.17
2017-12-31T00:40:30.047Z,996.21
2017-12-31T00:41:10.467Z,996.17
2017-12-31T00:41:50.816Z,996.16
2017-12-31T00:42:31.736Z,996.13
2017-12-31T00:43:12.303Z,996.16
2017-12-31T00:43:54.669Z,996.13
2017-12-31T00:44:35.086Z,996.13
2017-12-31T00:45:15.400Z,996.15
2017-12-31T00:45:56.382Z,996.13
2017-12-31T00:46:36.544Z,996.18
2017-12-31T00:47:18.509Z,996.15
2017-12-31T00:47:58.799Z,996.16
2017-12-31T00:48:38.985Z,996.11
2017-12-31T00:49:20.073Z,996.17
2017-12-31T00:50:01.244Z,996.15
2017-12-31T00:50:42.515Z,996.14
2017-12-31T00:51:26.620Z,996.12
2017-12-31T00:52:06.972Z,996.15
2017-12-31T00:52:47.389Z,996.15
2017-12-31T00:53:27.914Z,996.13
2017-12-31T00:54:08.291Z,996.09
2017-12-31T00:54:50.153Z,996.04
2017-12-31T00:55:30.001Z,996.04
2017-12-31T00:56:10.953Z,996.09
2017-12-31T00:56:51.854Z,996.07
2017-12-31T00:57:32.703Z,996.05
2017-12-31T00:58:17.417Z,996.03
2017-12-31T00:58:57.162Z,996.04
2017-12-31T00:59:40.372Z,996.02
2017-12-31T01:00:21.018Z,996.02
2017-12-31T01:01:01.393Z,996.09
2017-12-31T01:01:42.683Z,996.04
2017-12-31T01:02:23.512Z,996.05
2017-12-31T01:03:05.224Z,996.11
2017-12-31T01:03:47.210Z,996.03
2017-12-31T01:04:33.328Z,996.08
2017-12-31T01:05:16.330Z,996.11
2017-12-31T01:05:59.986Z,996.06
2017-12-31T01:06:41.375Z,996.04
2017-12-31T01:07:22.441Z,996.08
2017-12-31T01:08:03.596Z,996.11
2017-12-31T01:08:44.569Z,996.1
2017-12-31T01:09:25.664Z,996.12
2017-12-31T01:10:06.709Z,996.15
2017-12-31T01:10:47.575Z,996.12
2017-12-31T01:11:29.562Z,996.11
2017-12-31T01:12:09.564Z,996.08
2017-12-31T01:12:53.512Z,996.08
2017-12-31T01:13:33.642Z,996.11
2017-12-31T01:14:15.536Z,996.18
2017-12-31T01:14:59.719Z,996.11
2017-12-31T01:15:43.113Z,996.15
2017-12-31T01:19:53.480Z,996.09
2017-12-31T01:21:58.793Z,996.06
2017-12-31T01:22:52.090Z,996.13
2017-12-31T01:23:51.668Z,996.04
2017-12-31T01:24:32.121Z,996.01
2017-12-31T01:27:13.949Z,995.94
2017-12-31T01:27:55.964Z,995.96
2017-12-31T01:28:36.922Z,996.1
2017-12-31T01:29:17.589Z,996.03
2017-12-31T01:30:01.619Z,995.98
2017-12-31T01:30:43.051Z,995.86
2017-12-31T01:31:24.440Z,995.84
2017-12-31T01:32:04.882Z,995.93
2017-12-31T01:32:46.905Z,995.97
2017-12-31T01:33:30.318Z,996.01
2017-12-31T01:34:11.556Z,996.01
2017-12-31T01:34:54.772Z,996.06
2017-12-31T01:35:36.647Z,996.01
2017-12-31T01:36:16.979Z,995.99
2017-12-31T01:36:57.479Z,996.02
2017-12-31T01:37:37.829Z,996.02
2017-12-31T01:38:19.684Z,996.02
2017-12-31T01:39:00.847Z,995.98
2017-12-31T01:39:42.558Z,995.97
2017-12-31T01:40:25.651Z,995.92
2017-12-31T01:41:06.880Z,995.88
2017-12-31T01:41:47.067Z,995.94
2017-12-31T01:42:27.470Z,995.99
2017-12-31T01:45:14.416Z,995.9
2017-12-31T01:45:54.838Z,995.8
2017-12-31T01:46:36.249Z,995.78
2017-12-31T01:47:16.144Z,995.81
2017-12-31T01:47:57.181Z,995.8
2017-12-31T01:48:37.790Z,995.77
2017-12-31T01:49:19.437Z,995.79
2017-12-31T01:49:59.240Z,995.78
2017-12-31T01:50:41.805Z,995.88
2017-12-31T01:51:22.338Z,995.95
2017-12-31T01:52:03.500Z,995.87
2017-12-31T01:52:45.845Z,995.8
2017-12-31T01:53:24.122Z,995.7
2017-12-31T01:55:27.326Z,995.8
2017-12-31T01:56:09.952Z,995.78
2017-12-31T01:56:50.693Z,995.78
2017-12-31T01:57:31.750Z,995.77
2017-12-31T01:58:11.725Z,995.77
2017-12-31T01:58:51.904Z,995.8
2017-12-31T01:59:32.336Z,995.91
2017-12-31T02:00:12.821Z,995.88
2017-12-31T02:00:53.156Z,995.89
2017-12-31T02:01:33.539Z,995.88
2017-12-31T02:02:13.937Z,995.87
2017-12-31T02:02:54.339Z,995.8
2017-12-31T02:03:35.401Z,995.7
2017-12-31T02:04:16.751Z,995.66
2017-12-31T02:04:57.204Z,995.72
2017-12-31T02:05:37.644Z,995.7
2017-12-31T02:06:18.422Z,995.78
2017-12-31T02:06:59.317Z,995.74
2017-12-31T02:07:40.898Z,995.7
2017-12-31T02:08:20.926Z,995.69
2017-12-31T02:09:01.541Z,995.68
2017-12-31T02:09:42.030Z,995.66
2017-12-31T02:10:22.593Z,995.67
2017-12-31T02:11:03.807Z,995.59
2017-12-31T02:11:43.631Z,995.61
2017-12-31T02:12:24.014Z,995.59
2017-12-31T02:13:04.362Z,995.69
2017-12-31T02:17:36.258Z,995.68
2017-12-31T02:24:04.808Z,995.6
2017-12-31T02:24:48.513Z,995.54
2017-12-31T02:25:29.162Z,995.55
2017-12-31T02:26:09.812Z,995.48
2017-12-31T02:26:50.329Z,995.47
2017-12-31T02:27:30.863Z,995.46
2017-12-31T02:28:11.250Z,995.48
2017-12-31T02:28:51.732Z,995.47
2017-12-31T02:29:32.308Z,995.45
2017-12-31T02:30:12.878Z,995.43
2017-12-31T02:30:53.482Z,995.37
2017-12-31T02:31:34.200Z,995.41
2017-12-31T02:32:15.282Z,995.45
2017-12-31T02:37:31.181Z,995.4
2017-12-31T02:39:28.079Z,995.46
2017-12-31T02:40:08.238Z,995.43
2017-12-31T02:40:48.481Z,995.44
2017-12-31T02:41:29.478Z,995.4
2017-12-31T02:42:09.914Z,995.4
2017-12-31T02:42:50.433Z,995.39
2017-12-31T02:43:31.269Z,995.35
2017-12-31T02:44:11.660Z,995.37
2017-12-31T02:44:52.085Z,995.39
2017-12-31T02:45:32.521Z,995.38
2017-12-31T02:46:12.931Z,995.4
2017-12-31T02:46:53.363Z,995.34
2017-12-31T02:47:33.768Z,995.49
2017-12-31T02:48:14.377Z,995.42
2017-12-31T02:48:54.629Z,995.3
2017-12-31T02:49:35.047Z,995.38
2017-12-31T02:50:15.507Z,995.32
2017-12-31T02:50:55.877Z,995.36
2017-12-31T02:51:36.235Z,995.32
2017-12-31T02:52:16.714Z,995.27
2017-12-31T02:52:57.098Z,995.28
2017-12-31T02:53:37.481Z,995.25
2017-12-31T02:54:17.906Z,995.23
2017-12-31T02:54:58.368Z,995.18
2017-12-31T02:55:38.778Z,995.21
2017-12-31T02:56:19.194Z,995.26
2017-12-31T02:56:59.586Z,995.2
2017-12-31T02:57:39.977Z,995.23
2017-12-31T02:58:20.342Z,995.19
2017-12-31T02:59:00.720Z,995.12
2017-12-31T02:59:41.144Z,995.14
2017-12-31T03:00:21.556Z,995.16
2017-12-31T03:01:01.972Z,995.13
2017-12-31T03:01:42.440Z,995.14
2017-12-31T03:02:23.078Z,995.16
2017-12-31T03:03:03.519Z,995.13
2017-12-31T03:03:44.112Z,995.05
2017-12-31T03:04:24.807Z,995.11
2017-12-31T03:05:05.754Z,995.07
2017-12-31T03:05:46.205Z,995.06
2017-12-31T03:06:26.605Z,995.02
2017-12-31T03:09:45.980Z,995.04
2017-12-31T03:10:32.331Z,995.01
2017-12-31T03:11:12.762Z,994.98
2017-12-31T03:11:53.109Z,994.97
2017-12-31T03:12:33.512Z,994.94
2017-12-31T03:13:14.196Z,995.03
2017-12-31T03:13:54.508Z,995.02
2017-12-31T03:14:35.095Z,994.99
2017-12-31T03:15:15.410Z,994.94
2017-12-31T03:15:55.782Z,995
2017-12-31T03:16:36.222Z,994.94
2017-12-31T03:17:16.667Z,994.95
2017-12-31T03:17:57.054Z,994.97
2017-12-31T03:18:39.081Z,994.93
2017-12-31T03:19:19.467Z,994.88
2017-12-31T03:19:59.806Z,994.89
2017-12-31T03:20:40.310Z,994.87
2017-12-31T03:21:20.715Z,994.8
2017-12-31T03:22:01.152Z,994.88
2017-12-31T03:22:41.583Z,994.86
2017-12-31T03:23:22.099Z,994.91
2017-12-31T03:29:32.948Z,994.87
2017-12-31T03:30:16.022Z,994.89
2017-12-31T03:30:56.792Z,994.89
2017-12-31T03:31:37.572Z,994.83
2017-12-31T03:32:18.741Z,994.88
2017-12-31T03:32:59.323Z,994.83
2017-12-31T03:33:39.953Z,994.78
2017-12-31T03:34:20.500Z,994.65
2017-12-31T03:36:21.166Z,994.82
2017-12-31T03:37:02.261Z,994.7
2017-12-31T03:37:42.956Z,994.73
2017-12-31T03:38:23.779Z,994.78
2017-12-31T03:39:04.502Z,994.81
2017-12-31T03:39:44.787Z,994.67
2017-12-31T03:40:25.888Z,994.7
2017-12-31T03:41:07.649Z,994.71
2017-12-31T03:41:48.173Z,994.67
2017-12-31T03:42:28.651Z,994.64
2017-12-31T03:43:09.105Z,994.81
2017-12-31T03:43:49.540Z,994.72
2017-12-31T03:44:30.655Z,994.7
2017-12-31T03:45:11.200Z,994.7
2017-12-31T03:45:51.628Z,994.45
2017-12-31T03:46:32.327Z,994.56
2017-12-31T03:47:13.256Z,994.52
2017-12-31T03:47:53.621Z,994.54
2017-12-31T03:48:33.965Z,994.68
2017-12-31T03:49:14.664Z,994.73
2017-12-31T03:49:55.514Z,994.73
2017-12-31T03:50:35.854Z,994.65
2017-12-31T03:51:16.631Z,994.64
2017-12-31T03:51:59.956Z,994.69
2017-12-31T03:52:40.456Z,994.69
2017-12-31T03:53:20.862Z,994.69
2017-12-31T03:54:01.816Z,994.63
2017-12-31T03:54:42.249Z,994.78
2017-12-31T03:55:23.060Z,994.75
2017-12-31T03:56:03.822Z,994.75
2017-12-31T03:56:44.210Z,994.68
2017-12-31T03:57:24.753Z,994.39
2017-12-31T03:58:05.055Z,994.42
2017-12-31T03:58:45.828Z,994.67
2017-12-31T03:59:26.340Z,994.71
2017-12-31T04:00:07.063Z,994.69
2017-12-31T04:00:47.654Z,994.6
2017-12-31T04:01:28.284Z,994.67
2017-12-31T04:43:00.019Z,994.79
2017-12-31T04:43:40.939Z,994.74
2017-12-31T04:44:21.320Z,994.41
2017-12-31T04:45:02.094Z,994.61
2017-12-31T04:45:42.392Z,994.83
2017-12-31T04:46:22.869Z,994.81
2017-12-31T04:47:03.250Z,994.8
2017-12-31T04:47:43.708Z,994.82
2017-12-31T04:48:24.134Z,994.74
2017-12-31T04:49:05.016Z,994.86
2017-12-31T04:49:45.565Z,994.76
2017-12-31T04:50:26.257Z,994.85
2017-12-31T04:51:06.797Z,994.8
2017-12-31T04:51:46.966Z,994.71
2017-12-31T04:52:27.446Z,994.74
2017-12-31T04:53:07.936Z,994.82
2017-12-31T04:53:48.489Z,994.69
2017-12-31T04:54:29.001Z,994.76
2017-12-31T04:55:10.349Z,994.86
2017-12-31T04:55:51.117Z,994.74
2017-12-31T04:56:31.752Z,994.83
2017-12-31T04:57:12.496Z,994.79
2017-12-31T04:57:53.085Z,994.72
2017-12-31T04:58:33.752Z,994.75
2017-12-31T04:59:14.489Z,994.65
2017-12-31T04:59:55.078Z,994.77
2017-12-31T05:00:35.557Z,994.71
2017-12-31T05:01:16.187Z,994.76
2017-12-31T05:01:56.780Z,994.87
2017-12-31T05:02:37.215Z,994.83
2017-12-31T05:03:17.516Z,994.76
2017-12-31T05:03:58.057Z,994.92
2017-12-31T05:04:38.511Z,994.93
2017-12-31T05:05:18.995Z,994.93
2017-12-31T05:05:59.692Z,994.95
2017-12-31T05:06:40.054Z,994.84
2017-12-31T05:07:20.399Z,994.82
2017-12-31T05:08:00.889Z,994.97
2017-12-31T05:08:41.390Z,994.92
2017-12-31T05:09:21.870Z,994.71
2017-12-31T05:10:03.377Z,994.87
2017-12-31T05:10:43.823Z,994.89
2017-12-31T05:11:24.684Z,994.82
2017-12-31T05:12:07.556Z,994.8
2017-12-31T05:12:48.035Z,994.85
2017-12-31T05:13:28.430Z,994.69
2017-12-31T05:15:25.548Z,994.82
2017-12-31T05:16:05.393Z,994.93
2017-12-31T05:16:45.809Z,994.93
2017-12-31T05:17:26.428Z,994.92
2017-12-31T05:18:07.341Z,994.87
2017-12-31T05:18:47.739Z,994.94
2017-12-31T05:21:10.988Z,995.03
2017-12-31T05:21:51.880Z,994.88
2017-12-31T05:22:32.339Z,994.96
2017-12-31T05:23:13.114Z,994.92
2017-12-31T05:23:53.353Z,994.94
2017-12-31T05:24:33.945Z,994.99
2017-12-31T05:25:14.687Z,995.02
2017-12-31T05:25:56.112Z,995.01
2017-12-31T05:26:36.518Z,995.05
2017-12-31T05:27:17.831Z,994.88
2017-12-31T05:27:57.959Z,994.92
2017-12-31T05:28:38.353Z,995.02
2017-12-31T05:29:18.949Z,994.9
2017-12-31T05:29:59.424Z,994.94
2017-12-31T05:30:39.808Z,995.02
2017-12-31T05:31:20.236Z,994.98
2017-12-31T05:32:00.719Z,995.04
2017-12-31T05:32:41.237Z,995.15
2017-12-31T05:33:21.746Z,995.12
2017-12-31T05:34:02.039Z,995.04
2017-12-31T05:34:42.388Z,994.95
2017-12-31T05:35:22.806Z,995.04
2017-12-31T05:36:03.248Z,994.99
2017-12-31T05:36:44.124Z,995.1
2017-12-31T05:37:24.484Z,995.04
2017-12-31T05:38:04.919Z,995
2017-12-31T05:38:46.064Z,995.09
2017-12-31T05:39:26.920Z,995.1
2017-12-31T05:40:07.028Z,995.16
2017-12-31T05:40:47.596Z,995.2
2017-12-31T05:41:27.973Z,995.19
2017-12-31T05:42:08.369Z,995.28
2017-12-31T05:42:48.800Z,995.23
2017-12-31T05:43:29.185Z,995.24
2017-12-31T05:44:09.742Z,995.29
2017-12-31T05:44:50.071Z,995.21
2017-12-31T05:45:30.637Z,995.22
2017-12-31T05:46:10.889Z,995.32
2017-12-31T05:46:51.535Z,995.19
2017-12-31T05:47:32.116Z,995.23
2017-12-31T05:48:12.519Z,995.16
2017-12-31T05:48:53.136Z,995.17
2017-12-31T05:49:33.573Z,995.35
2017-12-31T05:50:14.035Z,995.27
2017-12-31T05:50:54.431Z,995.36
2017-12-31T05:51:34.891Z,995.26
2017-12-31T05:52:15.427Z,995.35
2017-12-31T05:52:56.009Z,995.3
2017-12-31T05:55:07.005Z,995.31
2017-12-31T05:55:55.385Z,995.17
2017-12-31T05:56:42.397Z,995.25
2017-12-31T05:57:28.880Z,995
2017-12-31T05:58:09.457Z,995.23
2017-12-31T05:58:49.979Z,995.2
2017-12-31T05:59:30.646Z,995.21
2017-12-31T06:04:08.739Z,995.13
2017-12-31T06:04:53.138Z,994.82
2017-12-31T06:05:33.647Z,995.12
2017-12-31T06:06:14.074Z,995.16
2017-12-31T06:06:54.875Z,995.17
2017-12-31T06:07:35.597Z,995.15
2017-12-31T06:08:16.530Z,995.08
2017-12-31T06:08:57.060Z,995.14
2017-12-31T06:09:39.182Z,995.14
2017-12-31T06:10:19.538Z,995.14
2017-12-31T06:11:00.370Z,995.12
2017-12-31T06:11:40.958Z,994.98
2017-12-31T06:12:21.206Z,995.03
2017-12-31T06:13:01.779Z,995.02
2017-12-31T06:13:42.542Z,995.13
2017-12-31T06:14:23.662Z,995.15
2017-12-31T06:15:04.208Z,995.16
2017-12-31T06:15:45.151Z,995.1
2017-12-31T06:16:25.621Z,995.15
2017-12-31T06:17:06.062Z,995.05
2017-12-31T06:17:46.973Z,995.02
2017-12-31T06:18:27.872Z,995.08
2017-12-31T06:19:08.182Z,995.14
2017-12-31T06:19:49.040Z,995.06
2017-12-31T06:20:31.477Z,995.15
2017-12-31T06:21:11.741Z,995.04
2017-12-31T06:21:52.674Z,995.14
2017-12-31T06:22:33.683Z,995.1
2017-12-31T06:23:14.528Z,995.02
2017-12-31T06:23:57.158Z,995.07
2017-12-31T06:24:37.752Z,995.08
2017-12-31T06:25:19.109Z,995.06
2017-12-31T06:25:59.598Z,995.03
2017-12-31T06:26:40.161Z,994.9
2017-12-31T06:27:20.720Z,994.96
2017-12-31T06:28:01.347Z,995.06
2017-12-31T06:28:42.515Z,994.78
2017-12-31T06:29:23.004Z,994.91
2017-12-31T06:30:03.934Z,995.01
2017-12-31T06:30:44.288Z,994.92
2017-12-31T06:31:25.393Z,994.96
2017-12-31T06:32:05.866Z,994.79
2017-12-31T06:32:46.283Z,994.83
2017-12-31T06:33:26.688Z,994.81
2017-12-31T06:34:07.340Z,994.84
2017-12-31T06:34:49.567Z,994.79
2017-12-31T06:35:31.082Z,994.76
2017-12-31T06:36:11.397Z,994.8
2017-12-31T06:36:52.040Z,994.78
2017-12-31T06:37:33.104Z,994.8
2017-12-31T06:38:13.489Z,994.8
2017-12-31T06:38:54.315Z,994.8
2017-12-31T06:40:56.538Z,994.79
2017-12-31T06:41:38.074Z,994.89
2017-12-31T06:42:18.027Z,994.8
2017-12-31T06:42:58.954Z,994.86
2017-12-31T06:43:39.156Z,994.79
2017-12-31T06:44:19.795Z,994.88
2017-12-31T06:45:00.410Z,994.84
2017-12-31T06:45:41.035Z,994.89
2017-12-31T06:46:21.429Z,994.99
2017-12-31T06:47:01.994Z,994.91
2017-12-31T06:47:43.297Z,994.87
2017-12-31T06:48:24.684Z,994.9
2017-12-31T06:49:05.287Z,994.94
2017-12-31T06:49:45.469Z,994.85
2017-12-31T06:50:25.956Z,994.79
2017-12-31T06:51:06.750Z,994.87
2017-12-31T06:51:47.305Z,994.75
2017-12-31T06:52:28.274Z,994.81
2017-12-31T06:53:08.677Z,994.81
2017-12-31T06:53:49.280Z,994.77
2017-12-31T06:54:30.117Z,994.75
2017-12-31T06:55:11.002Z,994.67
2017-12-31T06:57:08.533Z,994.56
2017-12-31T06:57:48.848Z,994.73
2017-12-31T06:58:29.186Z,994.76
2017-12-31T07:00:28.012Z,994.74
2017-12-31T07:01:09.293Z,994.64
2017-12-31T07:01:49.723Z,994.92
2017-12-31T07:03:49.474Z,994.67
2017-12-31T07:04:32.013Z,994.75
2017-12-31T07:05:12.607Z,994.73
2017-12-31T07:05:53.742Z,994.82
2017-12-31T07:06:34.296Z,994.66
2017-12-31T07:07:15.046Z,994.83
2017-12-31T07:07:55.700Z,994.8
2017-12-31T07:08:36.715Z,994.75
2017-12-31T07:09:17.189Z,994.34
2017-12-31T07:09:57.680Z,994.72
2017-12-31T07:10:38.869Z,994.68
2017-12-31T07:11:19.982Z,994.68
2017-12-31T07:12:00.729Z,994.81
2017-12-31T07:12:41.189Z,994.68
2017-12-31T07:13:21.746Z,994.63
2017-12-31T07:14:02.155Z,994.72
2017-12-31T07:14:42.569Z,994.71
2017-12-31T07:15:23.223Z,994.72
2017-12-31T07:16:03.684Z,994.53
2017-12-31T07:16:44.241Z,994.51
2017-12-31T07:17:24.636Z,994.79
2017-12-31T07:18:05.078Z,994.69
2017-12-31T07:18:45.706Z,994.77
2017-12-31T07:19:26.427Z,994.77
2017-12-31T07:20:06.985Z,994.65
2017-12-31T07:20:47.506Z,994.71
2017-12-31T07:21:27.973Z,994.67
2017-12-31T07:22:09.859Z,994.66
2017-12-31T07:22:49.700Z,994.74
2017-12-31T07:23:32.456Z,994.68
2017-12-31T07:24:15.225Z,994.78
2017-12-31T07:24:55.951Z,994.71
2017-12-31T07:25:36.895Z,994.72
2017-12-31T07:26:17.785Z,994.6
2017-12-31T07:26:58.265Z,994.74
2017-12-31T07:27:38.845Z,994.74
2017-12-31T07:29:58.117Z,994.75
2017-12-31T07:30:42.145Z,994.81
2017-12-31T07:31:22.645Z,994.59
2017-12-31T07:32:04.871Z,994.77
2017-12-31T07:32:46.305Z,994.81
2017-12-31T07:33:26.947Z,994.9
2017-12-31T07:34:07.404Z,994.75
2017-12-31T07:34:47.921Z,994.78
2017-12-31T07:35:28.492Z,994.83
2017-12-31T07:36:08.958Z,994.74
2017-12-31T07:36:50.054Z,994.88
2017-12-31T07:37:30.585Z,994.85
2017-12-31T07:38:10.946Z,994.83
2017-12-31T07:38:52.015Z,994.88
2017-12-31T07:39:32.397Z,994.89
2017-12-31T07:40:13.533Z,994.87
2017-12-31T07:40:54.355Z,994.87
2017-12-31T07:41:34.627Z,994.84
2017-12-31T07:42:15.257Z,994.87
2017-12-31T07:42:57.919Z,994.88
2017-12-31T07:43:38.272Z,994.92
2017-12-31T07:44:18.741Z,994.58
2017-12-31T07:44:59.370Z,994.76
2017-12-31T07:45:39.870Z,994.88
2017-12-31T07:46:20.261Z,994.77
2017-12-31T07:47:00.824Z,994.68
2017-12-31T07:47:41.642Z,994.79
2017-12-31T07:48:22.243Z,994.82
2017-12-31T07:49:02.767Z,994.74
2017-12-31T07:49:43.229Z,994.76
2017-12-31T07:50:23.995Z,994.69
2017-12-31T07:51:05.363Z,994.88
2017-12-31T07:51:45.925Z,994.89
2017-12-31T07:52:27.571Z,994.9
2017-12-31T07:53:08.456Z,994.89
2017-12-31T07:53:48.776Z,994.96
2017-12-31T07:54:29.257Z,995.07
2017-12-31T07:55:09.751Z,995.09
2017-12-31T07:55:50.277Z,995.05
2017-12-31T07:56:30.911Z,995.04
2017-12-31T07:58:29.698Z,995.14
2017-12-31T07:59:10.247Z,995.05
2017-12-31T07:59:50.870Z,995.2
2017-12-31T08:00:33.922Z,995.09
2017-12-31T08:01:14.235Z,995.15
2017-12-31T08:01:54.664Z,995.08
2017-12-31T08:02:35.732Z,995.19
2017-12-31T08:03:16.091Z,995.2
2017-12-31T08:05:37.840Z,995.18
2017-12-31T08:06:18.936Z,995.21
2017-12-31T08:06:59.592Z,995.13
2017-12-31T08:07:40.253Z,994.94
2017-12-31T08:08:20.739Z,995.24
2017-12-31T08:09:01.700Z,995.21
2017-12-31T08:09:42.343Z,995.19
2017-12-31T08:10:22.943Z,995.07
2017-12-31T08:13:55.146Z,995.04
2017-12-31T08:14:35.843Z,994.98
2017-12-31T08:15:17.550Z,995.03
2017-12-31T08:15:58.813Z,995.06
2017-12-31T08:18:15.144Z,994.95
2017-12-31T08:18:57.894Z,994.91
2017-12-31T08:19:38.302Z,994.98
2017-12-31T08:20:18.681Z,995.01
2017-12-31T08:20:59.237Z,995.02
2017-12-31T08:21:39.585Z,995.04
2017-12-31T08:22:20.228Z,994.82
2017-12-31T08:23:00.822Z,995.05
2017-12-31T08:23:41.931Z,994.96
2017-12-31T08:24:22.313Z,994.94
2017-12-31T08:25:02.914Z,994.92
2017-12-31T08:25:43.341Z,994.9
2017-12-31T08:27:46.858Z,994.92
2017-12-31T08:28:32.878Z,995.01
2017-12-31T08:29:13.042Z,994.93
2017-12-31T08:29:53.620Z,994.93
2017-12-31T08:30:34.184Z,994.87
2017-12-31T08:31:14.933Z,994.85
2017-12-31T08:31:55.512Z,994.94
2017-12-31T08:32:35.983Z,994.93
2017-12-31T08:33:16.510Z,994.91
2017-12-31T08:33:56.950Z,994.94
2017-12-31T08:34:37.783Z,994.93
2017-12-31T08:35:17.811Z,994.94
2017-12-31T08:35:58.265Z,995.01
2017-12-31T08:38:29.802Z,994.91
2017-12-31T08:39:15.883Z,994.94
2017-12-31T08:39:56.378Z,994.94
2017-12-31T08:40:36.811Z,994.85
2017-12-31T08:41:17.188Z,994.89
2017-12-31T08:41:58.344Z,994.97
2017-12-31T08:42:38.840Z,994.92
2017-12-31T08:43:19.264Z,994.96
2017-12-31T08:43:59.763Z,994.81
2017-12-31T08:44:40.327Z,994.92
2017-12-31T08:45:20.869Z,994.91
2017-12-31T08:46:01.474Z,994.95
2017-12-31T08:46:42.772Z,994.88
2017-12-31T08:47:23.639Z,994.84
2017-12-31T08:48:04.185Z,994.83
2017-12-31T08:48:44.803Z,994.77
2017-12-31T08:49:25.628Z,994.89
2017-12-31T08:50:06.229Z,994.96
2017-12-31T08:50:47.601Z,994.88
2017-12-31T08:51:28.418Z,994.91
2017-12-31T08:52:09.355Z,994.78
2017-12-31T08:52:49.994Z,994.88
2017-12-31T08:53:30.435Z,995.01
2017-12-31T08:54:11.708Z,994.94
2017-12-31T08:54:52.187Z,994.89
2017-12-31T08:55:32.813Z,994.96
2017-12-31T08:56:13.440Z,994.82
2017-12-31T08:56:54.035Z,994.88
2017-12-31T08:57:34.497Z,994.95
2017-12-31T08:58:14.940Z,994.91
2017-12-31T09:00:33.968Z,994.95
2017-12-31T09:01:15.089Z,994.82
2017-12-31T09:01:55.606Z,994.8
2017-12-31T09:02:36.041Z,994.81
2017-12-31T09:03:16.647Z,994.91
2017-12-31T09:03:57.381Z,994.82
2017-12-31T09:04:37.767Z,994.91
2017-12-31T09:05:18.429Z,994.8
2017-12-31T09:05:58.812Z,994.88
2017-12-31T09:06:39.199Z,994.9
2017-12-31T09:07:19.662Z,994.82
2017-12-31T09:08:00.309Z,994.77
2017-12-31T09:08:40.685Z,994.84
2017-12-31T09:09:23.705Z,994.79
2017-12-31T09:10:04.238Z,994.77
2017-12-31T09:10:45.043Z,994.83
2017-12-31T09:11:25.795Z,994.83
2017-12-31T09:12:06.454Z,994.81
2017-12-31T09:12:47.680Z,994.84
2017-12-31T09:13:28.511Z,994.94
2017-12-31T09:14:08.415Z,994.93
2017-12-31T09:14:51.232Z,994.91
2017-12-31T09:15:33.177Z,994.89
2017-12-31T09:16:14.140Z,994.83
2017-12-31T09:18:42.304Z,994.92
2017-12-31T09:19:24.229Z,994.91
2017-12-31T09:20:05.396Z,994.88
2017-12-31T09:20:45.560Z,994.92
2017-12-31T09:21:26.137Z,994.89
2017-12-31T09:23:26.064Z,994.92
2017-12-31T09:24:08.242Z,994.77
2017-12-31T09:24:48.608Z,994.88
2017-12-31T09:25:29.562Z,994.88
2017-12-31T09:26:10.496Z,994.98
2017-12-31T09:26:51.278Z,994.85
2017-12-31T09:27:32.260Z,994.8
2017-12-31T09:28:13.073Z,994.85
2017-12-31T09:28:53.488Z,994.86
2017-12-31T09:29:33.953Z,994.9
2017-12-31T09:30:15.366Z,994.93
2017-12-31T09:30:56.011Z,994.97
2017-12-31T09:31:36.913Z,995.01
2017-12-31T09:32:17.418Z,994.86
2017-12-31T09:32:57.914Z,995
2017-12-31T09:33:38.486Z,994.88
2017-12-31T09:34:19.067Z,994.77
2017-12-31T09:35:00.206Z,994.92
2017-12-31T09:35:40.288Z,994.77
2017-12-31T09:36:21.281Z,994.93
2017-12-31T09:37:01.829Z,995.01
2017-12-31T09:37:42.416Z,994.95
2017-12-31T09:40:13.699Z,994.83
2017-12-31T09:40:55.717Z,994.91
2017-12-31T09:41:36.682Z,994.93
2017-12-31T09:42:17.219Z,994.94
2017-12-31T09:42:58.130Z,994.96
2017-12-31T09:43:38.240Z,994.93
2017-12-31T09:44:18.671Z,994.89
2017-12-31T09:44:59.296Z,994.88
2017-12-31T09:45:39.564Z,995.21
2017-12-31T09:46:20.033Z,994.85
2017-12-31T09:47:01.103Z,994.94
2017-12-31T09:47:41.982Z,995.05
2017-12-31T09:48:22.673Z,994.93
2017-12-31T09:49:03.416Z,994.93
2017-12-31T09:49:43.768Z,994.75
2017-12-31T09:50:24.224Z,994.83
2017-12-31T09:51:05.106Z,994.86
2017-12-31T09:51:45.431Z,994.87
2017-12-31T09:52:26.494Z,994.85
2017-12-31T09:53:06.891Z,994.79
2017-12-31T09:53:47.570Z,994.89
2017-12-31T09:54:28.480Z,994.81
2017-12-31T09:55:09.021Z,994.84
2017-12-31T09:55:49.715Z,994.87
2017-12-31T09:56:30.130Z,994.92
2017-12-31T09:57:11.265Z,994.94
2017-12-31T09:57:52.246Z,994.82
2017-12-31T09:58:33.105Z,994.88
2017-12-31T09:59:13.930Z,994.81
2017-12-31T09:59:54.883Z,994.87
2017-12-31T10:00:35.542Z,994.92
2017-12-31T10:01:15.933Z,994.87
2017-12-31T10:01:56.396Z,994.94
2017-12-31T10:02:37.077Z,994.92
2017-12-31T10:03:17.374Z,994.91
2017-12-31T10:44:05.316Z,994.25
2017-12-31T10:44:53.632Z,994.39
2017-12-31T10:45:42.567Z,994.31
2017-12-31T10:46:31.165Z,994.37
2017-12-31T10:47:20.476Z,994.31
2017-12-31T10:49:38.959Z,994.27
2017-12-31T10:50:20.965Z,994.29
2017-12-31T10:51:01.408Z,994.33
2017-12-31T10:51:42.068Z,994.27
2017-12-31T10:52:22.535Z,994.29
2017-12-31T10:53:03.171Z,994.41
2017-12-31T10:53:44.341Z,994.35
2017-12-31T10:55:40.874Z,994.42
2017-12-31T10:56:21.867Z,994.64
2017-12-31T10:57:02.424Z,994.51
2017-12-31T10:57:44.500Z,994.5
2017-12-31T10:58:26.251Z,994.58
2017-12-31T10:59:06.669Z,994.48
2017-12-31T10:59:47.263Z,994.51
2017-12-31T11:00:27.941Z,994.56
2017-12-31T11:01:08.702Z,994.48
2017-12-31T11:01:49.279Z,994.57
2017-12-31T11:02:30.683Z,994.58
2017-12-31T11:03:11.465Z,994.45
2017-12-31T11:03:52.512Z,994.51
2017-12-31T11:04:33.245Z,994.46
2017-12-31T11:05:14.117Z,994.52
2017-12-31T11:05:54.704Z,994.53
2017-12-31T11:06:35.733Z,994.47
2017-12-31T11:07:17.272Z,994.56
2017-12-31T11:09:15.193Z,994.43
2017-12-31T11:09:59.567Z,994.45
2017-12-31T11:10:39.547Z,994.27
2017-12-31T11:11:20.086Z,994.31
2017-12-31T11:12:01.370Z,994.35
2017-12-31T11:12:41.905Z,994.32
2017-12-31T11:13:22.502Z,994.46
2017-12-31T11:14:03.684Z,994.37
2017-12-31T11:14:44.078Z,994.31
2017-12-31T11:15:24.794Z,994.17
2017-12-31T11:16:05.706Z,994.38
2017-12-31T11:16:46.164Z,994.33
2017-12-31T11:17:26.922Z,994.26
2017-12-31T11:18:07.736Z,994.29
2017-12-31T11:18:48.332Z,994.11
2017-12-31T11:19:29.305Z,994.18